createdAt,value
2018-02-04T00:00:42.933Z,52.43
2018-02-04T00:01:52.752Z,52.81
2018-02-04T00:03:02.273Z,52.62
2018-02-04T00:04:11.508Z,52.62
2018-02-04T00:05:21.387Z,52.34
2018-02-04T00:06:30.596Z,52.62
2018-02-04T00:07:40.220Z,52.24
2018-02-04T00:08:49.439Z,52.24
2018-02-04T00:09:58.630Z,52.24
2018-02-04T00:11:07.984Z,52.24
2018-02-04T00:12:17.398Z,52.24
2018-02-04T00:13:26.451Z,52.4
2018-02-04T00:14:35.512Z,52.34
2018-02-04T00:15:44.877Z,52.24
2018-02-04T00:16:54.619Z,52.53
2018-02-04T00:18:03.874Z,52.24
2018-02-04T00:19:12.814Z,52.62
2018-02-04T00:20:22.233Z,52.53
2018-02-04T00:21:31.532Z,52.62
2018-02-04T00:22:41.714Z,52.72
2018-02-04T00:23:50.984Z,52.72
2018-02-04T00:25:00.844Z,52.72
2018-02-04T00:26:10.382Z,52.62
2018-02-04T00:27:19.541Z,52.62
2018-02-04T00:28:28.614Z,52.05
2018-02-04T00:29:37.958Z,52.14
2018-02-04T00:30:47.465Z,52.14
2018-02-04T00:31:56.160Z,52.53
2018-02-04T00:33:04.985Z,52.24
2018-02-04T00:34:14.728Z,52.24
2018-02-04T00:35:23.736Z,52.05
2018-02-04T00:36:32.974Z,52.14
2018-02-04T00:37:42.213Z,52.24
2018-02-04T00:38:50.940Z,52.14
2018-02-04T00:39:59.901Z,52.14
2018-02-04T00:41:08.592Z,52.14
2018-02-04T00:42:17.285Z,52.05
2018-02-04T00:43:26.248Z,52.05
2018-02-04T00:44:35.207Z,51.86
2018-02-04T00:45:44.431Z,51.76
2018-02-04T00:46:53.126Z,52.05
2018-02-04T00:48:02.365Z,51.95
2018-02-04T00:49:11.060Z,51.95
2018-02-04T00:50:20.027Z,52.14
2018-02-04T00:51:29.252Z,51.86
2018-02-04T00:52:37.945Z,51.86
2018-02-04T00:53:47.438Z,51.86
2018-02-04T00:54:56.664Z,52.24
2018-02-04T00:56:05.357Z,52.24
2018-02-04T00:57:14.050Z,51.83
2018-02-04T00:58:23.543Z,51.95
2018-02-04T00:59:32.238Z,52.24
2018-02-04T01:00:41.467Z,52.05
2018-02-04T01:01:50.428Z,52.24
2018-02-04T01:02:59.120Z,52.05
2018-02-04T01:04:07.812Z,52.05
2018-02-04T01:05:16.509Z,52.14
2018-02-04T01:06:25.476Z,52.14
2018-02-04T01:07:34.712Z,52.05
2018-02-04T01:08:43.675Z,51.95
2018-02-04T01:09:52.628Z,51.95
2018-02-04T01:11:01.590Z,52.14
2018-02-04T01:12:10.820Z,52.14
2018-02-04T01:13:19.510Z,52.14
2018-02-04T01:14:28.743Z,52.05
2018-02-04T01:15:37.709Z,52.05
2018-02-04T01:16:46.672Z,52.05
2018-02-04T01:17:55.368Z,51.95
2018-02-04T01:19:04.370Z,52.05
2018-02-04T01:20:13.315Z,52.05
2018-02-04T01:21:22.275Z,51.95
2018-02-04T01:22:31.233Z,51.95
2018-02-04T01:23:40.460Z,51.86
2018-02-04T01:24:49.421Z,52.05
2018-02-04T01:25:58.116Z,51.76
2018-02-04T01:27:06.806Z,51.86
2018-02-04T01:28:15.765Z,51.76
2018-02-04T01:29:25.268Z,51.95
2018-02-04T01:30:34.213Z,51.47
2018-02-04T01:31:43.173Z,51.67
2018-02-04T01:32:52.133Z,51.76
2018-02-04T01:34:01.098Z,51.76
2018-02-04T01:35:10.327Z,51.57
2018-02-04T01:36:19.019Z,51.54
2018-02-04T01:38:36.674Z,51.57
2018-02-04T01:39:45.628Z,51.47
2018-02-04T01:40:54.330Z,51.76
2018-02-04T01:42:03.547Z,51.76
2018-02-04T01:43:12.505Z,51.76
2018-02-04T01:44:21.466Z,51.67
2018-02-04T01:45:30.427Z,51.76
2018-02-04T01:46:39.653Z,51.76
2018-02-04T01:47:48.615Z,51.67
2018-02-04T01:48:57.575Z,51.76
2018-02-04T01:50:06.535Z,51.76
2018-02-04T01:51:15.491Z,51.67
2018-02-04T01:52:24.190Z,51.47
2018-02-04T01:53:33.416Z,51.47
2018-02-04T01:54:42.108Z,51.47
2018-02-04T01:55:51.343Z,51.95
2018-02-04T01:57:00.298Z,51.76
2018-02-04T01:58:08.991Z,51.95
2018-02-04T01:59:17.954Z,52.05
2018-02-04T02:00:26.642Z,52.05
2018-02-04T02:01:36.188Z,51.76
2018-02-04T02:02:44.884Z,51.86
2018-02-04T02:03:53.838Z,51.95
2018-02-04T02:05:03.062Z,51.37
2018-02-04T02:06:12.290Z,51.86
2018-02-04T02:07:21.252Z,51.37
2018-02-04T02:08:30.744Z,51.76
2018-02-04T02:09:39.440Z,51.57
2018-02-04T02:10:48.401Z,51.47
2018-02-04T02:11:57.096Z,51.57
2018-02-04T02:13:06.056Z,51.35
2018-02-04T02:14:15.015Z,51.18
2018-02-04T02:15:24.261Z,50.99
2018-02-04T02:16:32.954Z,50.99
2018-02-04T02:17:42.181Z,51.47
2018-02-04T02:18:51.138Z,51.28
2018-02-04T02:19:59.830Z,50.99
2018-02-04T02:21:08.789Z,51.28
2018-02-04T02:22:17.491Z,51.47
2018-02-04T02:23:26.992Z,51.47
2018-02-04T02:24:35.954Z,51.47
2018-02-04T02:25:44.651Z,51.47
2018-02-04T02:26:53.610Z,51.06
2018-02-04T02:28:02.590Z,50.9
2018-02-04T02:29:11.549Z,50.99
2018-02-04T02:30:20.788Z,51.09
2018-02-04T02:31:30.015Z,51.28
2018-02-04T02:32:39.511Z,51.28
2018-02-04T02:33:48.474Z,51.37
2018-02-04T02:34:57.430Z,51.28
2018-02-04T02:36:07.188Z,50.9
2018-02-04T02:37:16.148Z,50.8
2018-02-04T02:38:25.110Z,50.87
2018-02-04T02:39:34.600Z,50.87
2018-02-04T02:40:44.097Z,50.87
2018-02-04T02:41:53.059Z,50.99
2018-02-04T02:43:02.019Z,50.99
2018-02-04T02:44:10.982Z,50.96
2018-02-04T02:45:19.680Z,50.9
2018-02-04T02:46:28.643Z,51.09
2018-02-04T02:47:37.597Z,50.78
2018-02-04T02:48:46.555Z,50.8
2018-02-04T02:49:55.250Z,51.06
2018-02-04T02:51:03.944Z,50.87
2018-02-04T02:52:12.969Z,50.96
2018-02-04T02:53:21.930Z,50.96
2018-02-04T02:54:30.887Z,50.96
2018-02-04T02:55:40.120Z,50.96
2018-02-04T02:56:49.081Z,50.96
2018-02-04T02:57:58.049Z,50.9
2018-02-04T02:59:06.744Z,50.78
2018-02-04T03:00:15.705Z,50.78
2018-02-04T03:01:24.939Z,50.9
2018-02-04T03:02:33.898Z,50.99
2018-02-04T03:03:49.393Z,50.96
2018-02-04T03:04:58.354Z,50.96
2018-02-04T03:06:07.322Z,50.96
2018-02-04T03:07:16.552Z,50.96
2018-02-04T03:08:25.510Z,50.87
2018-02-04T03:09:34.205Z,50.96
2018-02-04T03:10:43.175Z,50.99
2018-02-04T03:11:51.872Z,50.87
2018-02-04T03:13:00.568Z,50.87
2018-02-04T03:14:09.797Z,50.87
2018-02-04T03:15:18.757Z,50.96
2018-02-04T03:16:27.455Z,50.87
2018-02-04T03:17:36.149Z,50.78
2018-02-04T03:18:45.378Z,50.68
2018-02-04T03:19:54.080Z,50.87
2018-02-04T03:21:03.315Z,50.87
2018-02-04T03:22:12.008Z,50.87
2018-02-04T03:23:20.706Z,50.87
2018-02-04T03:24:29.399Z,50.87
2018-02-04T03:25:38.364Z,50.87
2018-02-04T03:26:47.060Z,50.87
2018-02-04T03:27:55.756Z,50.87
2018-02-04T03:29:04.981Z,50.78
2018-02-04T03:30:14.475Z,50.87
2018-02-04T03:31:23.975Z,50.78
2018-02-04T03:32:32.938Z,50.68
2018-02-04T03:33:41.636Z,50.58
2018-02-04T03:34:50.328Z,51.16
2018-02-04T03:35:59.285Z,50.96
2018-02-04T03:37:08.517Z,50.96
2018-02-04T03:38:17.744Z,50.96
2018-02-04T03:39:26.704Z,51.06
2018-02-04T03:40:36.468Z,50.96
2018-02-04T03:41:45.163Z,51.06
2018-02-04T03:42:53.858Z,51.06
2018-02-04T03:44:03.409Z,50.96
2018-02-04T03:45:12.369Z,51.09
2018-02-04T03:46:21.331Z,50.99
2018-02-04T03:47:30.559Z,50.87
2018-02-04T03:48:39.789Z,50.87
2018-02-04T03:49:49.016Z,50.78
2018-02-04T03:50:57.985Z,50.87
2018-02-04T03:52:06.982Z,50.96
2018-02-04T03:53:16.212Z,50.87
2018-02-04T03:54:26.241Z,50.78
2018-02-04T03:55:34.938Z,50.87
2018-02-04T03:56:43.928Z,50.96
2018-02-04T03:57:52.619Z,50.96
2018-02-04T03:59:02.112Z,50.96
2018-02-04T04:00:11.336Z,51.06
2018-02-04T04:01:20.296Z,50.78
2018-02-04T04:02:29.262Z,51.06
2018-02-04T04:03:37.953Z,51.06
2018-02-04T04:04:46.916Z,51.06
2018-02-04T04:05:55.877Z,51.06
2018-02-04T04:07:04.568Z,51.06
2018-02-04T04:08:13.530Z,51.06
2018-02-04T04:09:22.755Z,51.06
2018-02-04T04:10:31.450Z,51.06
2018-02-04T04:11:40.676Z,51.25
2018-02-04T04:12:49.900Z,51.06
2018-02-04T04:13:59.128Z,51.06
2018-02-04T04:15:08.085Z,51.25
2018-02-04T04:16:17.107Z,50.68
2018-02-04T04:17:25.807Z,50.78
2018-02-04T04:18:34.505Z,50.68
2018-02-04T04:19:43.469Z,50.68
2018-02-04T04:20:52.163Z,50.96
2018-02-04T04:22:00.856Z,51.16
2018-02-04T04:23:09.825Z,50.68
2018-02-04T04:24:19.052Z,51.16
2018-02-04T04:25:28.008Z,50.68
2018-02-04T04:26:37.507Z,50.2
2018-02-04T04:27:46.204Z,50.2
2018-02-04T04:28:55.166Z,50.68
2018-02-04T04:30:04.400Z,50.2
2018-02-04T04:31:13.624Z,50.49
2018-02-04T04:32:22.582Z,50.2
2018-02-04T04:33:31.545Z,50.29
2018-02-04T04:34:40.505Z,50.29
2018-02-04T04:35:49.200Z,50.68
2018-02-04T04:36:57.896Z,50.58
2018-02-04T04:38:06.893Z,50.39
2018-02-04T04:39:15.590Z,50.39
2018-02-04T04:40:24.285Z,50.49
2018-02-04T04:41:32.978Z,50.39
2018-02-04T04:42:42.471Z,50.49
2018-02-04T04:43:51.431Z,50.49
2018-02-04T04:45:00.389Z,50.49
2018-02-04T04:46:09.614Z,50.39
2018-02-04T04:47:18.311Z,50.58
2018-02-04T04:48:27.005Z,50.39
2018-02-04T04:49:35.967Z,50.58
2018-02-04T04:50:45.732Z,50.39
2018-02-04T04:51:54.688Z,50.39
2018-02-04T04:53:03.649Z,50.2
2018-02-04T04:54:12.608Z,50.49
2018-02-04T04:55:21.305Z,50.49
2018-02-04T04:56:30.265Z,50.39
2018-02-04T04:57:39.225Z,50.58
2018-02-04T04:58:47.920Z,50.68
2018-02-04T04:59:57.144Z,50.68
2018-02-04T05:01:06.104Z,50.68
2018-02-04T05:02:14.799Z,50.39
2018-02-04T05:03:23.498Z,50.01
2018-02-04T05:04:32.194Z,49.91
2018-02-04T05:05:40.886Z,50.29
2018-02-04T05:06:49.583Z,50.2
2018-02-04T05:07:58.809Z,50.1
2018-02-04T05:09:07.773Z,50.2
2018-02-04T05:10:17.002Z,50.01
2018-02-04T05:11:25.960Z,50.29
2018-02-04T05:12:34.923Z,50.01
2018-02-04T05:13:43.621Z,49.91
2018-02-04T05:14:52.318Z,50.01
2018-02-04T05:16:01.286Z,50.1
2018-02-04T05:17:10.256Z,49.82
2018-02-04T05:18:19.841Z,50.1
2018-02-04T05:19:28.539Z,50.29
2018-02-04T05:20:37.494Z,50.29
2018-02-04T05:21:46.724Z,50.2
2018-02-04T05:22:55.686Z,50.2
2018-02-04T05:24:04.915Z,50.1
2018-02-04T05:25:13.605Z,49.91
2018-02-04T05:26:22.294Z,50.01
2018-02-04T05:27:31.253Z,49.72
2018-02-04T05:28:40.482Z,49.72
2018-02-04T05:29:49.710Z,50.01
2018-02-04T05:30:58.942Z,49.82
2018-02-04T05:32:08.164Z,49.72
2018-02-04T05:33:17.130Z,49.52
2018-02-04T05:34:26.100Z,49.72
2018-02-04T05:35:34.792Z,49.91
2018-02-04T05:36:43.753Z,49.62
2018-02-04T05:37:52.714Z,49.91
2018-02-04T05:39:01.407Z,49.82
2018-02-04T05:40:10.374Z,49.82
2018-02-04T05:41:19.606Z,50.1
2018-02-04T05:42:28.304Z,49.82
2018-02-04T05:43:36.996Z,49.82
2018-02-04T05:44:45.691Z,49.91
2018-02-04T05:45:54.652Z,49.82
2018-02-04T05:47:03.884Z,50.1
2018-02-04T05:48:13.382Z,49.82
2018-02-04T05:49:22.073Z,49.82
2018-02-04T05:50:31.033Z,49.72
2018-02-04T05:51:39.727Z,50.1
2018-02-04T05:52:49.227Z,50.01
2018-02-04T05:53:58.185Z,50.01
2018-02-04T05:55:06.881Z,50.01
2018-02-04T05:56:15.585Z,50.1
2018-02-04T05:57:24.274Z,49.91
2018-02-04T05:58:33.504Z,50.01
2018-02-04T05:59:42.734Z,50.01
2018-02-04T06:00:51.955Z,50.01
2018-02-04T06:02:00.650Z,50.1
2018-02-04T06:03:09.609Z,50.29
2018-02-04T06:04:19.147Z,50.2
2018-02-04T06:05:27.840Z,50.39
2018-02-04T06:06:36.802Z,50.2
2018-02-04T06:07:45.496Z,50.29
2018-02-04T06:08:54.459Z,49.72
2018-02-04T06:10:03.420Z,50.2
2018-02-04T06:11:12.114Z,49.82
2018-02-04T06:12:20.810Z,49.52
2018-02-04T06:13:29.769Z,49.52
2018-02-04T06:14:38.730Z,49.52
2018-02-04T06:15:47.992Z,49.72
2018-02-04T06:16:56.654Z,49.43
2018-02-04T06:18:05.614Z,49.72
2018-02-04T06:19:14.585Z,49.62
2018-02-04T06:20:23.547Z,49.52
2018-02-04T06:21:32.765Z,49.91
2018-02-04T06:22:41.725Z,49.72
2018-02-04T06:23:50.421Z,49.82
2018-02-04T06:24:59.386Z,49.82
2018-02-04T06:26:09.147Z,49.82
2018-02-04T06:27:18.106Z,49.72
2018-02-04T06:28:27.067Z,49.82
2018-02-04T06:29:36.028Z,49.72
2018-02-04T06:30:45.521Z,49.72
2018-02-04T06:31:54.216Z,49.82
2018-02-04T06:33:02.907Z,49.72
2018-02-04T06:34:11.597Z,49.62
2018-02-04T06:35:20.298Z,49.82
2018-02-04T06:36:29.317Z,49.72
2018-02-04T06:37:38.277Z,49.72
2018-02-04T06:38:47.243Z,49.82
2018-02-04T06:39:56.468Z,49.82
2018-02-04T06:41:06.231Z,49.62
2018-02-04T06:42:15.186Z,49.43
2018-02-04T06:43:24.145Z,49.82
2018-02-04T06:44:33.105Z,49.82
2018-02-04T06:45:41.803Z,49.72
2018-02-04T06:46:51.293Z,49.62
2018-02-04T06:47:59.990Z,49.24
2018-02-04T06:49:08.685Z,49.43
2018-02-04T06:50:17.382Z,49.05
2018-02-04T06:51:26.607Z,49.33
2018-02-04T06:52:35.297Z,49.05
2018-02-04T06:53:44.524Z,49.43
2018-02-04T06:54:53.487Z,49.43
2018-02-04T06:56:02.444Z,49.43
2018-02-04T06:57:11.406Z,49.43
2018-02-04T06:58:20.100Z,49.52
2018-02-04T06:59:29.331Z,49.33
2018-02-04T07:00:38.293Z,49.43
2018-02-04T07:01:47.266Z,49.33
2018-02-04T07:02:56.496Z,49.33
2018-02-04T07:04:05.719Z,49.43
2018-02-04T07:05:15.210Z,49.33
2018-02-04T07:06:24.437Z,49.33
2018-02-04T07:07:33.128Z,49.05
2018-02-04T07:08:41.823Z,49.33
2018-02-04T07:09:50.519Z,49.43
2018-02-04T07:10:59.212Z,49.33
2018-02-04T07:12:08.176Z,49.33
2018-02-04T07:13:16.869Z,49.33
2018-02-04T07:14:26.370Z,49.15
2018-02-04T07:15:35.599Z,49.33
2018-02-04T07:16:44.564Z,49.43
2018-02-04T07:17:53.791Z,49.52
2018-02-04T07:19:02.488Z,49.43
2018-02-04T07:20:11.715Z,49.43
2018-02-04T07:21:20.405Z,49.43
2018-02-04T07:22:29.369Z,49.52
2018-02-04T07:23:38.859Z,49.33
2018-02-04T07:24:47.819Z,49.15
2018-02-04T07:25:56.779Z,49.15
2018-02-04T07:27:06.274Z,49.24
2018-02-04T07:28:14.967Z,49.33
2018-02-04T07:29:24.462Z,49.15
2018-02-04T07:30:34.228Z,49.52
2018-02-04T07:31:43.189Z,49.52
2018-02-04T07:32:51.889Z,49.33
2018-02-04T07:34:01.112Z,49.24
2018-02-04T07:35:10.878Z,49.15
2018-02-04T07:36:20.105Z,49.15
2018-02-04T07:37:29.332Z,49.33
2018-02-04T07:38:38.289Z,49.15
2018-02-04T07:39:46.988Z,49.24
2018-02-04T07:40:56.218Z,49.33
2018-02-04T07:42:05.450Z,49.24
2018-02-04T07:43:14.416Z,49.33
2018-02-04T07:44:23.381Z,49.43
2018-02-04T07:45:32.341Z,49.52
2018-02-04T07:46:41.303Z,49.43
2018-02-04T07:47:50.530Z,49.33
2018-02-04T07:48:59.755Z,49.62
2018-02-04T07:50:08.714Z,49.52
2018-02-04T07:51:17.679Z,49.82
2018-02-04T07:52:26.916Z,49.62
2018-02-04T07:53:35.619Z,49.62
2018-02-04T07:54:45.118Z,49.91
2018-02-04T07:55:54.081Z,49.52
2018-02-04T07:57:03.310Z,49.52
2018-02-04T07:58:12.600Z,49.72
2018-02-04T07:59:21.843Z,49.52
2018-02-04T08:00:30.806Z,49.52
2018-02-04T08:01:40.033Z,49.62
2018-02-04T08:02:49.261Z,49.72
2018-02-04T08:03:58.244Z,49.82
2018-02-04T08:05:07.198Z,49.72
2018-02-04T08:06:16.423Z,49.72
2018-02-04T08:07:25.118Z,49.82
2018-02-04T08:08:34.088Z,49.82
2018-02-04T08:09:43.584Z,49.82
2018-02-04T08:10:52.278Z,49.52
2018-02-04T08:12:01.508Z,49.72
2018-02-04T08:13:10.205Z,49.52
2018-02-04T08:14:19.969Z,49.43
2018-02-04T08:15:28.663Z,49.52
2018-02-04T08:16:37.622Z,49.72
2018-02-04T08:17:46.579Z,49.33
2018-02-04T08:18:56.070Z,49.33
2018-02-04T08:20:05.038Z,49.82
2018-02-04T08:21:14.266Z,49.43
2018-02-04T08:22:22.962Z,49.15
2018-02-04T08:23:31.924Z,49.15
2018-02-04T08:24:41.195Z,49.33
2018-02-04T08:25:50.156Z,49.15
2018-02-04T08:26:58.853Z,49.33
2018-02-04T08:28:07.817Z,49.43
2018-02-04T08:29:16.781Z,49.43
2018-02-04T08:30:25.476Z,49.43
2018-02-04T08:31:34.735Z,49.52
2018-02-04T08:32:43.963Z,49.43
2018-02-04T08:33:52.662Z,49.52
2018-02-04T08:35:02.504Z,49.33
2018-02-04T08:36:11.473Z,49.33
2018-02-04T08:37:20.431Z,49.43
2018-02-04T08:38:29.660Z,49.43
2018-02-04T08:39:38.900Z,49.52
2018-02-04T08:40:48.388Z,49.72
2018-02-04T08:41:57.614Z,49.52
2018-02-04T08:43:06.840Z,49.52
2018-02-04T08:44:16.067Z,49.52
2018-02-04T08:45:25.027Z,48.95
2018-02-04T08:46:34.253Z,47.22
2018-02-04T08:47:43.474Z,46.36
2018-02-04T08:48:52.173Z,45.59
2018-02-04T08:50:01.462Z,44.34
2018-02-04T08:51:10.428Z,43.77
2018-02-04T08:52:19.396Z,42.98
2018-02-04T08:53:28.088Z,42.02
2018-02-04T08:54:37.052Z,41.73
2018-02-04T08:55:45.746Z,41.52
2018-02-04T08:56:54.438Z,41.54
2018-02-04T08:58:03.400Z,42.21
2018-02-04T08:59:12.363Z,42.98
2018-02-04T09:00:21.857Z,43.84
2018-02-04T09:01:30.815Z,44.13
2018-02-04T09:02:39.781Z,44.61
2018-02-04T09:03:49.279Z,45.47
2018-02-04T09:04:58.237Z,46.14
2018-02-04T09:06:07.741Z,46.34
2018-02-04T09:07:16.440Z,46.62
2018-02-04T09:08:25.930Z,46.72
2018-02-04T09:09:34.627Z,47.41
2018-02-04T09:10:43.597Z,47.8
2018-02-04T09:11:52.561Z,48.47
2018-02-04T09:13:01.252Z,48.66
2018-02-04T09:14:10.488Z,49.05
2018-02-04T09:15:19.184Z,49.62
2018-02-04T09:16:27.931Z,50.39
2018-02-04T09:17:36.709Z,50.78
2018-02-04T09:18:45.937Z,51.16
2018-02-04T09:19:55.259Z,50.78
2018-02-04T09:21:04.560Z,51.06
2018-02-04T09:22:13.252Z,51.06
2018-02-04T09:23:22.491Z,50.78
2018-02-04T09:24:31.188Z,51.16
2018-02-04T09:25:40.435Z,51.93
2018-02-04T09:26:49.713Z,51.64
2018-02-04T09:27:58.408Z,51.67
2018-02-04T09:29:07.367Z,51.86
2018-02-04T09:30:16.877Z,51.57
2018-02-04T09:31:26.119Z,52.05
2018-02-04T09:32:35.081Z,52.14
2018-02-04T09:33:43.773Z,51.86
2018-02-04T09:34:53.268Z,52.62
2018-02-04T09:36:02.507Z,52.24
2018-02-04T09:37:11.472Z,52.53
2018-02-04T09:38:20.431Z,52.62
2018-02-04T09:39:29.128Z,52.62
2018-02-04T09:40:37.818Z,53.11
2018-02-04T09:41:46.517Z,52.62
2018-02-04T09:42:55.481Z,52.62
2018-02-04T09:44:04.182Z,52.81
2018-02-04T09:45:13.143Z,52.34
2018-02-04T09:46:21.837Z,52.72
2018-02-04T09:47:30.802Z,52.34
2018-02-04T09:48:40.032Z,52.34
2018-02-04T09:49:48.995Z,52.72
2018-02-04T09:50:58.220Z,52.62
2018-02-04T09:52:07.185Z,52.34
2018-02-04T09:53:16.417Z,52.53
2018-02-04T09:54:25.113Z,52.26
2018-02-04T09:55:33.806Z,52.26
2018-02-04T09:56:42.774Z,52.36
2018-02-04T09:57:52.001Z,52.55
2018-02-04T09:59:00.698Z,52.75
2018-02-04T10:00:09.986Z,53.11
2018-02-04T10:01:18.947Z,52.43
2018-02-04T10:02:27.914Z,52.14
2018-02-04T10:03:36.876Z,51.57
2018-02-04T10:04:45.835Z,52.14
2018-02-04T10:05:54.531Z,51.4
2018-02-04T10:07:03.774Z,50.61
2018-02-04T10:08:12.470Z,50.03
2018-02-04T10:09:21.218Z,50.13
2018-02-04T10:10:29.915Z,50.23
2018-02-04T10:11:38.700Z,49.74
2018-02-04T10:12:47.961Z,49.74
2018-02-04T10:13:57.420Z,49.93
2018-02-04T10:15:06.545Z,50.32
2018-02-04T10:16:15.518Z,50.51
2018-02-04T10:17:24.492Z,50.32
2018-02-04T10:18:33.219Z,50.99
2018-02-04T10:19:42.268Z,50.99
2018-02-04T10:20:51.525Z,51.09
2018-02-04T10:22:00.573Z,50.7
2018-02-04T10:23:09.805Z,50.8
2018-02-04T10:24:18.543Z,51.09
2018-02-04T10:25:27.494Z,50.13
2018-02-04T10:26:36.997Z,50.61
2018-02-04T10:27:46.232Z,50.51
2018-02-04T10:28:55.462Z,50.23
2018-02-04T10:30:04.431Z,49.84
2018-02-04T10:31:13.397Z,50.03
2018-02-04T10:32:22.352Z,50.03
2018-02-04T10:33:31.048Z,50.13
2018-02-04T10:34:39.744Z,50.03
2018-02-04T10:35:48.984Z,50.03
2018-02-04T10:36:57.945Z,49.65
2018-02-04T10:38:07.187Z,49.65
2018-02-04T10:39:16.463Z,49.17
2018-02-04T10:40:25.638Z,49.46
2018-02-04T10:41:34.649Z,49.46
2018-02-04T10:42:43.878Z,49.93
2018-02-04T10:43:52.841Z,49.36
2018-02-04T10:45:01.539Z,48.69
2018-02-04T10:46:10.236Z,49.07
2018-02-04T10:47:19.730Z,48.79
2018-02-04T10:48:28.691Z,48.4
2018-02-04T10:49:37.655Z,48.88
2018-02-04T10:50:46.618Z,48.49
2018-02-04T10:51:55.584Z,48.11
2018-02-04T10:53:04.585Z,48.4
2018-02-04T10:54:13.546Z,48.4
2018-02-04T10:55:22.507Z,47.72
2018-02-04T10:56:31.200Z,48.49
2018-02-04T10:57:39.895Z,48.3
2018-02-04T10:58:48.862Z,48.21
2018-02-04T10:59:57.564Z,48.21
2018-02-04T11:01:06.254Z,47.63
2018-02-04T11:02:14.951Z,47.53
2018-02-04T11:03:23.646Z,47.82
2018-02-04T11:04:32.345Z,47.34
2018-02-04T11:05:41.575Z,47.05
2018-02-04T11:06:51.071Z,47.25
2018-02-04T11:08:00.031Z,47.34
2018-02-04T11:09:09.529Z,47.15
2018-02-04T11:10:18.217Z,47.44
2018-02-04T11:11:27.493Z,47.15
2018-02-04T11:12:36.192Z,47.25
2018-02-04T11:13:45.688Z,47.25
2018-02-04T11:14:54.384Z,47.05
2018-02-04T11:16:03.609Z,46.77
2018-02-04T11:17:12.572Z,47.08
2018-02-04T11:18:21.535Z,46.86
2018-02-04T11:19:30.235Z,46.86
2018-02-04T11:20:39.471Z,47.17
2018-02-04T11:21:48.431Z,47.05
2018-02-04T11:22:57.400Z,47.05
2018-02-04T11:24:06.096Z,47.15
2018-02-04T11:25:14.792Z,47.15
2018-02-04T11:26:24.024Z,47.25
2018-02-04T11:27:32.717Z,47.15
2018-02-04T11:28:41.416Z,47.15
2018-02-04T11:29:50.381Z,46.58
2018-02-04T11:30:59.344Z,46.67
2018-02-04T11:32:08.308Z,46.86
2018-02-04T11:33:17.270Z,46.77
2018-02-04T11:34:26.498Z,46.77
2018-02-04T11:35:35.464Z,46.28
2018-02-04T11:36:44.424Z,46.77
2018-02-04T11:37:53.383Z,45.9
2018-02-04T11:39:02.342Z,46.28
2018-02-04T11:40:11.313Z,46.77
2018-02-04T11:41:20.545Z,46.86
2018-02-04T11:42:29.239Z,46.58
2018-02-04T11:43:38.205Z,46.67
2018-02-04T11:44:47.439Z,46.77
2018-02-04T11:45:56.402Z,46.77
2018-02-04T11:47:05.367Z,46.77
2018-02-04T11:48:14.061Z,47.15
2018-02-04T11:49:22.760Z,46.77
2018-02-04T11:50:31.982Z,46.67
2018-02-04T11:51:41.210Z,46.77
2018-02-04T11:52:50.167Z,46.48
2018-02-04T11:53:59.394Z,46.86
2018-02-04T11:55:08.086Z,46.77
2018-02-04T11:56:16.779Z,46.67
2018-02-04T11:57:26.059Z,47.15
2018-02-04T11:58:34.749Z,47.05
2018-02-04T11:59:43.714Z,46.96
2018-02-04T12:00:52.940Z,46.67
2018-02-04T12:02:02.433Z,47.15
2018-02-04T12:03:11.130Z,47.05
2018-02-04T12:04:19.825Z,46.58
2018-02-04T12:05:28.798Z,46.77
2018-02-04T12:06:37.763Z,46.86
2018-02-04T12:07:46.717Z,46.86
2018-02-04T12:08:55.410Z,46.58
2018-02-04T12:10:04.657Z,47.15
2018-02-04T12:11:13.623Z,47.05
2018-02-04T12:12:22.586Z,46.96
2018-02-04T12:13:31.549Z,47.05
2018-02-04T12:14:40.511Z,47.34
2018-02-04T12:15:49.207Z,47.25
2018-02-04T12:16:58.971Z,47.05
2018-02-04T12:18:08.202Z,47.25
2018-02-04T12:19:16.897Z,47.15
2018-02-04T12:20:25.591Z,47.05
2018-02-04T12:21:34.815Z,47.25
2018-02-04T12:22:43.778Z,47.53
2018-02-04T12:23:53.269Z,47.05
2018-02-04T12:25:02.242Z,47.63
2018-02-04T12:26:10.936Z,47.05
2018-02-04T12:27:19.629Z,47.34
2018-02-04T12:28:28.587Z,47.44
2018-02-04T12:29:37.547Z,47.44
2018-02-04T12:30:46.510Z,47.25
2018-02-04T12:31:55.470Z,47.15
2018-02-04T12:33:04.167Z,46.77
2018-02-04T12:34:13.400Z,46.67
2018-02-04T12:35:22.099Z,46.28
2018-02-04T12:36:30.795Z,46.67
2018-02-04T12:37:39.752Z,46.58
2018-02-04T12:38:48.450Z,46.86
2018-02-04T12:39:57.681Z,47.05
2018-02-04T12:41:06.641Z,46.58
2018-02-04T12:42:15.871Z,47.25
2018-02-04T12:43:24.833Z,47.25
2018-02-04T12:44:33.528Z,47.15
2018-02-04T12:45:42.808Z,47.05
2018-02-04T12:46:51.774Z,46.77
2018-02-04T12:48:00.738Z,47.25
2018-02-04T12:49:09.968Z,47.25
2018-02-04T12:50:18.664Z,47.15
2018-02-04T12:51:27.623Z,46.86
2018-02-04T12:52:36.593Z,46.86
2018-02-04T12:53:45.288Z,46.48
2018-02-04T12:54:54.252Z,46.67
2018-02-04T12:56:02.950Z,46.86
2018-02-04T12:57:11.911Z,46.96
2018-02-04T12:58:21.137Z,46.86
2018-02-04T12:59:30.102Z,46.77
2018-02-04T13:00:39.061Z,46.77
2018-02-04T13:01:48.552Z,46.67
2018-02-04T13:02:57.534Z,46.67
2018-02-04T13:04:06.476Z,46.67
2018-02-04T13:05:15.438Z,46.77
2018-02-04T13:06:24.133Z,46.77
2018-02-04T13:07:33.091Z,46.58
2018-02-04T13:08:42.050Z,46.58
2018-02-04T13:09:51.010Z,46.67
2018-02-04T13:10:59.702Z,46.77
2018-02-04T13:12:08.929Z,46.86
2018-02-04T13:13:17.621Z,46.67
2018-02-04T13:14:26.856Z,46.86
2018-02-04T13:15:36.083Z,46.67
2018-02-04T13:16:45.310Z,46.86
2018-02-04T13:17:54.800Z,46.58
2018-02-04T13:19:03.496Z,47.05
2018-02-04T13:20:12.457Z,46.38
2018-02-04T13:21:21.957Z,46.58
2018-02-04T13:22:30.652Z,46.67
2018-02-04T13:23:39.620Z,46.58
2018-02-04T13:24:48.860Z,46.86
2018-02-04T13:25:57.828Z,46.86
2018-02-04T13:27:06.780Z,46.96
2018-02-04T13:28:16.016Z,46.86
2018-02-04T13:29:25.512Z,46.19
2018-02-04T13:30:34.474Z,46.19
2018-02-04T13:31:43.440Z,46.09
2018-02-04T13:32:52.933Z,46.28
2018-02-04T13:34:01.633Z,46.19
2018-02-04T13:35:11.126Z,46.19
2018-02-04T13:36:20.085Z,46.67
2018-02-04T13:37:29.309Z,46.67
2018-02-04T13:38:38.276Z,46.19
2018-02-04T13:39:47.511Z,46.67
2018-02-04T13:40:56.480Z,46
2018-02-04T13:42:05.172Z,46.09
2018-02-04T13:43:14.138Z,46.28
2018-02-04T13:44:23.101Z,45.9
2018-02-04T13:45:31.799Z,46.09
2018-02-04T13:46:40.762Z,46.28
2018-02-04T13:47:49.727Z,46.38
2018-02-04T13:48:58.422Z,46.28
2018-02-04T13:50:07.657Z,46.19
2018-02-04T13:51:17.418Z,45.71
2018-02-04T13:52:26.692Z,46.19
2018-02-04T13:53:36.184Z,46
2018-02-04T13:54:45.412Z,46
2018-02-04T13:55:54.637Z,46.48
2018-02-04T13:57:04.132Z,45.9
2018-02-04T13:58:12.827Z,46.38
2018-02-04T13:59:21.787Z,46.38
2018-02-04T14:00:30.748Z,46.48
2018-02-04T14:01:39.444Z,46
2018-02-04T14:02:48.689Z,45.71
2018-02-04T14:03:57.908Z,46.09
2018-02-04T14:05:07.134Z,46
2018-02-04T14:06:16.369Z,45.71
2018-02-04T14:07:25.330Z,45.52
2018-02-04T14:08:34.024Z,46.28
2018-02-04T14:09:43.262Z,45.9
2018-02-04T14:10:52.226Z,46.09
2018-02-04T14:12:01.453Z,46.28
2018-02-04T14:13:10.153Z,46
2018-02-04T14:14:19.113Z,46.77
2018-02-04T14:15:27.822Z,46.77
2018-02-04T14:16:36.763Z,46.38
2018-02-04T14:17:45.992Z,46.58
2018-02-04T14:18:54.951Z,46.28
2018-02-04T14:20:03.911Z,46.28
2018-02-04T14:21:12.875Z,46
2018-02-04T14:22:21.569Z,46.09
2018-02-04T14:23:30.800Z,46.09
2018-02-04T14:24:40.029Z,46.28
2018-02-04T14:25:49.525Z,46.28
2018-02-04T14:26:59.019Z,46.09
2018-02-04T14:28:07.713Z,46.09
2018-02-04T14:29:16.457Z,46.28
2018-02-04T14:30:25.687Z,46.28
2018-02-04T14:31:34.958Z,46.28
2018-02-04T14:32:44.193Z,46.09
2018-02-04T14:33:53.149Z,46.09
2018-02-04T14:35:02.373Z,46.67
2018-02-04T14:36:11.868Z,46.86
2018-02-04T14:37:20.834Z,46.28
2018-02-04T14:38:29.531Z,46.28
2018-02-04T14:39:38.498Z,46.28
2018-02-04T14:40:47.191Z,46.09
2018-02-04T14:41:56.414Z,46.09
2018-02-04T14:43:05.640Z,46.19
2018-02-04T14:44:14.339Z,46.19
2018-02-04T14:45:23.032Z,46
2018-02-04T14:46:32.262Z,46
2018-02-04T14:47:41.225Z,45.9
2018-02-04T14:48:50.186Z,46.09
2018-02-04T14:49:59.154Z,45.9
2018-02-04T14:51:08.423Z,46.09
2018-02-04T14:52:17.917Z,46
2018-02-04T14:53:27.145Z,45.9